createdAt,value
2019-03-17T00:00:11.193Z,158.30
2019-03-17T00:02:39.784Z,155.20
2019-03-17T00:05:08.081Z,145.13
2019-03-17T00:07:36.370Z,143.90
2019-03-17T00:10:04.849Z,147.33
2019-03-17T00:12:33.154Z,140.77
2019-03-17T00:15:05.776Z,143.97
2019-03-17T00:17:32.094Z,139.73
2019-03-17T00:20:00.682Z,133.90
2019-03-17T00:22:31.715Z,132.57
2019-03-17T00:25:09.316Z,124.13
2019-03-17T00:27:30.388Z,132.43
2019-03-17T00:29:59.012Z,129.07
2019-03-17T00:32:27.320Z,127.80
2019-03-17T00:34:55.627Z,128.43
2019-03-17T00:37:24.263Z,124.37
2019-03-17T00:39:52.574Z,125.87
2019-03-17T00:42:20.930Z,165.33
2019-03-17T00:44:49.594Z,168.90
2019-03-17T00:47:18.010Z,158.77
2019-03-17T00:49:46.550Z,157.83
2019-03-17T00:52:16.603Z,157.33
2019-03-17T00:54:44.957Z,141.83
2019-03-17T00:57:13.539Z,149.60
2019-03-17T00:59:41.865Z,149.93
2019-03-17T01:02:10.804Z,139.43
2019-03-17T01:04:39.103Z,134.17
2019-03-17T01:07:07.662Z,147.27
2019-03-17T01:09:36.308Z,165.43
2019-03-17T01:12:04.994Z,151.33
2019-03-17T01:14:33.569Z,147.20
2019-03-17T01:17:01.880Z,172.67
2019-03-17T01:19:30.442Z,168.57
2019-03-17T01:21:58.748Z,150.73
2019-03-17T01:24:27.348Z,153.57
2019-03-17T01:26:55.798Z,148.23
2019-03-17T01:29:24.465Z,148.77
2019-03-17T01:31:54.450Z,152.77
2019-03-17T01:34:22.747Z,148.37
2019-03-17T01:36:51.349Z,138.33
2019-03-17T01:39:19.698Z,136.83
2019-03-17T01:41:48.306Z,133.70
2019-03-17T01:44:16.609Z,133.90
2019-03-17T01:46:46.803Z,133.57
2019-03-17T01:49:15.388Z,134.33
2019-03-17T01:51:43.705Z,128.17
2019-03-17T01:54:12.350Z,128.83
2019-03-17T01:56:40.631Z,126.07
2019-03-17T01:59:08.919Z,121.33
2019-03-17T02:01:37.479Z,116.77
2019-03-17T02:04:05.821Z,116.23
2019-03-17T02:06:34.118Z,121.03
2019-03-17T02:09:02.423Z,116.50
2019-03-17T02:11:32.022Z,110.03
2019-03-17T02:14:00.616Z,110.40
2019-03-17T02:16:29.287Z,114.67
2019-03-17T02:18:57.616Z,104.13
2019-03-17T02:21:25.934Z,113.13
2019-03-17T02:23:54.243Z,108.67
2019-03-17T02:26:22.656Z,104.33
2019-03-17T02:28:50.975Z,107.20
2019-03-17T02:31:19.262Z,111.17
2019-03-17T02:33:48.041Z,109.87
2019-03-17T02:36:16.625Z,104.20
2019-03-17T02:38:44.907Z,105.13
2019-03-17T02:41:13.192Z,96.33
2019-03-17T02:43:41.758Z,93.80
2019-03-17T02:46:10.353Z,96.40
2019-03-17T02:48:38.669Z,89.40
2019-03-17T02:51:06.952Z,91.03
2019-03-17T02:53:35.239Z,92.67
2019-03-17T02:56:05.327Z,90.70
2019-03-17T02:58:33.602Z,92.77
2019-03-17T03:01:02.261Z,88.17
2019-03-17T03:03:30.568Z,88.63
2019-03-17T03:05:58.865Z,89.60
2019-03-17T03:08:27.141Z,89.20
2019-03-17T03:10:55.443Z,88.40
2019-03-17T03:13:24.251Z,91.13
2019-03-17T03:15:52.742Z,87.20
2019-03-17T03:18:21.326Z,85.53
2019-03-17T03:20:49.600Z,82.87
2019-03-17T03:23:17.899Z,79.47
2019-03-17T03:25:46.198Z,77.23
2019-03-17T03:28:14.571Z,80.67
2019-03-17T03:30:42.967Z,78.10
2019-03-17T03:33:11.592Z,80.93
2019-03-17T03:35:39.890Z,77.43
2019-03-17T03:38:08.228Z,78.47
2019-03-17T03:40:37.143Z,80.40
2019-03-17T03:43:05.727Z,75.00
2019-03-17T03:45:34.321Z,70.27
2019-03-17T03:48:02.634Z,68.00
2019-03-17T03:50:30.982Z,71.50
2019-03-17T03:52:59.549Z,72.23
2019-03-17T03:55:27.827Z,68.03
2019-03-17T03:57:56.106Z,69.60
2019-03-17T04:00:24.683Z,67.93
2019-03-17T04:02:53.272Z,66.77
2019-03-17T04:05:21.572Z,64.20
2019-03-17T04:07:49.882Z,68.37
2019-03-17T04:10:18.165Z,65.53
2019-03-17T04:12:46.465Z,65.00
2019-03-17T04:15:14.847Z,63.47
2019-03-17T04:17:43.143Z,64.63
2019-03-17T04:20:11.987Z,60.90
2019-03-17T04:22:40.331Z,63.40
2019-03-17T04:25:08.885Z,60.47
2019-03-17T04:27:37.182Z,61.30
2019-03-17T04:30:08.512Z,64.80
2019-03-17T04:32:37.100Z,57.37
2019-03-17T04:35:06.497Z,55.20
2019-03-17T04:37:38.065Z,57.33
2019-03-17T04:40:08.532Z,56.37
2019-03-17T04:42:37.272Z,56.83
2019-03-17T04:45:06.691Z,52.57
2019-03-17T04:47:34.993Z,54.17
2019-03-17T04:50:03.899Z,55.83
2019-03-17T04:52:32.519Z,55.17
2019-03-17T04:55:00.850Z,50.77
2019-03-17T04:57:29.173Z,50.87
2019-03-17T04:59:57.510Z,54.90
2019-03-17T05:02:25.820Z,50.33
2019-03-17T05:04:54.382Z,51.97
2019-03-17T05:07:23.118Z,49.90
2019-03-17T05:09:51.682Z,48.77
2019-03-17T05:12:20.273Z,48.53
2019-03-17T05:14:48.648Z,48.40
2019-03-17T05:17:17.239Z,48.63
2019-03-17T05:19:45.541Z,47.03
2019-03-17T05:22:13.851Z,46.93
2019-03-17T05:24:42.147Z,47.67
2019-03-17T05:27:10.747Z,46.10
2019-03-17T05:29:39.118Z,47.00
2019-03-17T05:32:07.405Z,46.77
2019-03-17T05:34:35.990Z,42.17
2019-03-17T05:37:06.519Z,45.17
2019-03-17T05:39:34.586Z,43.27
2019-03-17T05:42:03.171Z,43.50
2019-03-17T05:44:31.758Z,43.37
2019-03-17T05:47:00.344Z,43.37
2019-03-17T05:49:28.632Z,41.27
2019-03-17T05:51:57.200Z,42.73
2019-03-17T05:54:25.755Z,38.90
2019-03-17T05:56:54.373Z,40.33
2019-03-17T05:59:22.673Z,40.37
2019-03-17T06:01:50.953Z,39.03
2019-03-17T06:04:19.601Z,40.20
2019-03-17T06:06:47.964Z,41.20
2019-03-17T06:09:16.273Z,39.57
2019-03-17T06:11:44.579Z,40.03
2019-03-17T06:14:13.220Z,41.47
2019-03-17T06:16:41.558Z,38.30
2019-03-17T06:19:10.193Z,36.30
2019-03-17T06:21:38.474Z,37.07
2019-03-17T06:24:07.052Z,37.00
2019-03-17T06:26:35.630Z,35.07
2019-03-17T06:29:03.945Z,36.93
2019-03-17T06:31:32.623Z,32.77
2019-03-17T06:34:02.419Z,35.27
2019-03-17T06:36:35.174Z,33.93
2019-03-17T06:39:01.177Z,35.03
2019-03-17T06:41:30.360Z,35.30
2019-03-17T06:44:00.715Z,33.87
2019-03-17T06:46:28.986Z,34.87
2019-03-17T06:48:59.829Z,34.60
2019-03-17T06:51:28.218Z,34.03
2019-03-17T06:53:57.040Z,32.37
2019-03-17T06:56:25.368Z,33.10
2019-03-17T06:58:53.682Z,30.67
2019-03-17T07:01:22.306Z,31.97
2019-03-17T07:03:52.550Z,29.90
2019-03-17T07:06:22.902Z,33.23
2019-03-17T07:08:51.189Z,30.43
2019-03-17T07:11:19.894Z,29.70
2019-03-17T07:13:48.604Z,31.47
2019-03-17T07:16:17.183Z,29.73
2019-03-17T07:18:45.486Z,27.30
2019-03-17T07:21:14.042Z,27.47
2019-03-17T07:23:42.367Z,29.07
2019-03-17T07:26:10.644Z,27.43
2019-03-17T07:28:38.938Z,28.30
2019-03-17T07:31:07.558Z,30.57
2019-03-17T07:33:36.144Z,26.50
2019-03-17T07:36:04.727Z,33.73
2019-03-17T07:38:33.028Z,28.10
2019-03-17T07:41:01.310Z,27.60
2019-03-17T07:43:29.619Z,25.07
2019-03-17T07:45:57.919Z,25.73
2019-03-17T07:48:26.625Z,28.07
2019-03-17T07:50:54.910Z,25.83
2019-03-17T07:53:23.209Z,23.73
2019-03-17T07:55:52.180Z,25.03
2019-03-17T07:58:20.751Z,22.63
2019-03-17T08:00:49.039Z,24.67
2019-03-17T08:03:17.321Z,24.40
2019-03-17T08:05:45.893Z,23.00
2019-03-17T08:08:14.483Z,23.23
2019-03-17T08:10:42.798Z,22.53
2019-03-17T08:13:11.641Z,22.37
2019-03-17T08:15:39.963Z,23.13
2019-03-17T08:18:08.271Z,21.90
2019-03-17T08:20:36.881Z,23.90
2019-03-17T08:23:05.164Z,21.83
2019-03-17T08:25:33.738Z,21.70
2019-03-17T08:28:02.027Z,21.97
2019-03-17T08:30:30.330Z,20.20
2019-03-17T08:32:58.618Z,21.50
2019-03-17T08:35:26.922Z,22.73
2019-03-17T08:37:55.219Z,21.43
2019-03-17T08:40:23.807Z,19.40
2019-03-17T08:42:52.398Z,20.60
2019-03-17T08:45:20.706Z,19.63
2019-03-17T08:47:57.707Z,21.13
2019-03-17T08:50:19.030Z,20.07
2019-03-17T08:52:47.648Z,18.03
2019-03-17T08:55:16.248Z,19.57
2019-03-17T08:57:44.783Z,17.83
2019-03-17T09:00:18.039Z,20.43
2019-03-17T09:02:46.586Z,18.50
2019-03-17T09:05:14.876Z,17.80
2019-03-17T09:07:43.457Z,18.83
2019-03-17T09:10:15.456Z,17.10
2019-03-17T09:12:43.997Z,22.20
2019-03-17T09:15:12.278Z,76.07
2019-03-17T09:17:40.861Z,43.57
2019-03-17T09:20:11.178Z,64.13
2019-03-17T09:22:39.480Z,49.77
2019-03-17T09:25:09.951Z,54.53
2019-03-17T09:27:38.254Z,61.03
2019-03-17T09:30:09.771Z,61.43
2019-03-17T09:32:38.078Z,51.43
2019-03-17T09:35:08.532Z,54.73
2019-03-17T09:37:36.894Z,49.73
2019-03-17T09:40:11.186Z,49.30
2019-03-17T09:42:39.798Z,48.77
2019-03-17T09:45:10.298Z,48.90
2019-03-17T09:47:41.318Z,47.37
2019-03-17T09:50:12.215Z,54.97
2019-03-17T09:52:40.790Z,69.10
2019-03-17T09:55:09.937Z,105.37
2019-03-17T09:57:38.575Z,93.80
2019-03-17T10:00:19.829Z,84.57
2019-03-17T10:02:48.439Z,77.50
2019-03-17T10:05:17.106Z,76.70
2019-03-17T10:07:45.404Z,76.23
2019-03-17T10:10:17.262Z,75.77
2019-03-17T10:12:47.693Z,75.80
2019-03-17T10:15:20.684Z,70.07
2019-03-17T10:17:49.369Z,93.27
2019-03-17T10:20:18.987Z,118.10
2019-03-17T10:22:47.678Z,101.40
2019-03-17T10:25:16.030Z,100.83
2019-03-17T10:27:44.729Z,98.33
2019-03-17T10:30:21.009Z,102.50
2019-03-17T10:32:49.353Z,99.30
2019-03-17T10:35:17.739Z,90.23
2019-03-17T10:37:46.019Z,88.83
2019-03-17T10:40:18.353Z,99.27
2019-03-17T10:42:47.112Z,96.07
2019-03-17T10:45:15.734Z,97.93
2019-03-17T10:47:44.349Z,122.87
2019-03-17T10:50:18.161Z,124.57
2019-03-17T10:52:46.752Z,139.20
2019-03-17T10:55:15.382Z,137.93
2019-03-17T10:57:44.012Z,143.53
2019-03-17T11:00:19.824Z,137.33
2019-03-17T11:02:48.456Z,138.13
2019-03-17T11:05:17.037Z,136.97
2019-03-17T11:07:46.760Z,138.80
2019-03-17T11:10:15.074Z,130.37
2019-03-17T11:12:43.703Z,124.97
2019-03-17T11:15:17.550Z,122.87
2019-03-17T11:17:45.851Z,130.40
2019-03-17T11:20:14.413Z,135.90
2019-03-17T11:22:43.056Z,131.13
2019-03-17T11:25:13.045Z,133.53
2019-03-17T11:27:41.366Z,134.23
2019-03-17T11:30:13.322Z,128.57
2019-03-17T11:32:41.638Z,125.53
2019-03-17T11:35:09.922Z,123.33
2019-03-17T11:37:38.250Z,122.50
2019-03-17T11:40:17.400Z,126.57
2019-03-17T11:42:45.714Z,147.67
2019-03-17T11:45:17.623Z,153.73
2019-03-17T11:47:46.207Z,162.77
2019-03-17T11:50:18.078Z,168.17
2019-03-17T11:52:46.380Z,161.43
2019-03-17T11:55:15.231Z,152.77
2019-03-17T11:57:43.939Z,144.37
2019-03-17T12:00:16.375Z,144.30
2019-03-17T12:02:44.741Z,135.47
2019-03-17T12:05:13.379Z,132.60
2019-03-17T12:07:43.293Z,134.83
2019-03-17T12:10:17.075Z,129.60
2019-03-17T12:12:45.659Z,130.93
2019-03-17T12:15:25.932Z,132.00
2019-03-17T12:17:54.236Z,129.00
2019-03-17T12:20:22.886Z,127.13
2019-03-17T12:22:51.213Z,126.03
2019-03-17T12:25:19.574Z,118.53
2019-03-17T12:27:47.973Z,116.70
2019-03-17T12:30:23.407Z,114.33
2019-03-17T12:32:52.688Z,112.57
2019-03-17T12:35:21.250Z,110.97
2019-03-17T12:37:49.539Z,113.13
2019-03-17T12:40:17.845Z,104.07
2019-03-17T12:42:46.392Z,109.03
2019-03-17T12:45:14.679Z,114.90
2019-03-17T12:47:42.974Z,116.37
2019-03-17T12:50:20.424Z,111.77
2019-03-17T12:52:48.754Z,111.03
2019-03-17T12:55:17.389Z,114.07
2019-03-17T12:57:45.707Z,107.17
2019-03-17T13:00:19.053Z,103.97
2019-03-17T13:02:47.604Z,106.17
2019-03-17T13:05:16.585Z,99.37
2019-03-17T13:07:44.893Z,103.53
2019-03-17T13:10:18.401Z,116.07
2019-03-17T13:12:46.716Z,124.07
2019-03-17T13:15:15.002Z,120.20
2019-03-17T13:17:43.302Z,116.93
2019-03-17T13:20:18.217Z,115.07
2019-03-17T13:22:47.279Z,120.33
2019-03-17T13:25:15.822Z,111.67
2019-03-17T13:27:44.383Z,114.83
2019-03-17T13:30:17.280Z,112.80
2019-03-17T13:32:45.587Z,105.43
2019-03-17T13:35:13.930Z,104.97
2019-03-17T13:37:42.636Z,107.33
2019-03-17T13:40:27.625Z,103.57
2019-03-17T13:42:46.710Z,102.30
2019-03-17T13:45:16.336Z,99.00
2019-03-17T13:47:44.827Z,97.27
2019-03-17T13:50:19.462Z,99.40
2019-03-17T13:52:48.176Z,96.83
2019-03-17T13:55:16.851Z,87.97
2019-03-17T13:57:51.771Z,84.67
2019-03-17T14:00:20.092Z,79.20
2019-03-17T14:02:48.740Z,78.63
2019-03-17T14:05:17.327Z,79.90
2019-03-17T14:07:48.682Z,92.80
2019-03-17T14:10:18.071Z,92.40
2019-03-17T14:12:46.751Z,86.93
2019-03-17T14:15:15.750Z,79.50
2019-03-17T14:17:44.353Z,80.10
2019-03-17T14:20:14.988Z,83.60
2019-03-17T14:22:43.757Z,96.87
2019-03-17T14:25:17.745Z,91.73
2019-03-17T14:27:46.446Z,91.33
2019-03-17T14:30:17.904Z,91.17
2019-03-17T14:32:46.488Z,91.00
2019-03-17T14:35:14.786Z,88.63
2019-03-17T14:37:43.342Z,88.20
2019-03-17T14:40:15.851Z,85.27
2019-03-17T14:42:46.137Z,85.73
2019-03-17T14:45:15.998Z,84.80
2019-03-17T14:47:44.362Z,89.73
2019-03-17T14:50:21.216Z,96.50
2019-03-17T14:52:49.924Z,104.80
2019-03-17T14:55:18.492Z,113.50
2019-03-17T14:57:47.082Z,110.93
2019-03-17T15:00:19.543Z,104.90
2019-03-17T15:02:47.826Z,115.63
2019-03-17T15:05:16.758Z,100.03
2019-03-17T15:07:45.408Z,96.33
2019-03-17T15:10:16.953Z,96.37
2019-03-17T15:12:45.310Z,96.10
2019-03-17T15:15:16.203Z,101.73
2019-03-17T15:17:44.857Z,91.37
2019-03-17T15:20:18.596Z,96.33
2019-03-17T15:22:47.298Z,89.63
2019-03-17T15:25:16.457Z,88.10
2019-03-17T15:27:45.159Z,92.17
2019-03-17T15:30:28.685Z,84.07
2019-03-17T15:32:57.352Z,80.13
2019-03-17T15:35:25.973Z,81.43
2019-03-17T15:37:54.618Z,79.97
2019-03-17T15:40:22.948Z,84.93
2019-03-17T15:42:51.694Z,92.10
2019-03-17T15:45:22.527Z,99.23
2019-03-17T15:47:50.808Z,90.10
2019-03-17T15:50:20.711Z,91.60
2019-03-17T15:52:49.096Z,88.63
2019-03-17T15:55:17.839Z,91.10
2019-03-17T15:57:46.464Z,90.83
2019-03-17T16:00:25.306Z,87.07
2019-03-17T16:02:51.138Z,89.07
2019-03-17T16:05:19.921Z,82.43
2019-03-17T16:07:48.533Z,89.77
2019-03-17T16:10:24.502Z,89.10
2019-03-17T16:12:53.130Z,89.93
2019-03-17T16:15:21.496Z,92.23
2019-03-17T16:17:49.796Z,92.20
2019-03-17T16:20:25.202Z,84.17
2019-03-17T16:22:53.810Z,91.80
2019-03-17T16:25:34.003Z,102.17
2019-03-17T16:28:02.652Z,135.53
2019-03-17T16:30:32.199Z,129.27
2019-03-17T16:33:00.532Z,132.63
2019-03-17T16:35:30.508Z,114.80
2019-03-17T16:37:58.844Z,109.73
2019-03-17T16:40:31.388Z,107.57
2019-03-17T16:43:00.105Z,110.27
2019-03-17T16:45:28.906Z,113.70
2019-03-17T16:47:58.439Z,165.03
2019-03-17T16:50:26.766Z,136.23
2019-03-17T16:52:57.393Z,142.17
2019-03-17T16:55:25.780Z,135.90
2019-03-17T16:57:54.086Z,140.73
2019-03-17T17:00:25.123Z,137.37
2019-03-17T17:02:53.791Z,212.70
2019-03-17T17:05:23.279Z,198.53
2019-03-17T17:07:51.865Z,193.93
2019-03-17T17:10:22.799Z,185.23
2019-03-17T17:12:51.128Z,198.27
2019-03-17T17:15:22.536Z,178.57
2019-03-17T17:17:50.835Z,186.73
2019-03-17T17:20:21.968Z,181.27
2019-03-17T17:22:50.356Z,172.03
2019-03-17T17:25:19.162Z,171.03
2019-03-17T17:27:47.940Z,167.60
2019-03-17T17:30:17.808Z,196.63
2019-03-17T17:32:46.397Z,187.30
2019-03-17T17:35:14.991Z,215.17
2019-03-17T17:37:43.620Z,215.37
2019-03-17T17:40:19.732Z,207.67
2019-03-17T17:42:49.854Z,202.60
2019-03-17T17:45:21.508Z,200.40
2019-03-17T17:47:49.963Z,197.57
2019-03-17T17:50:19.535Z,189.30
2019-03-17T17:52:48.192Z,185.30
2019-03-17T17:55:17.005Z,191.37
2019-03-17T17:57:45.880Z,185.77
2019-03-17T18:00:22.398Z,215.40
2019-03-17T18:02:51.024Z,233.63
2019-03-17T18:05:19.337Z,237.43
2019-03-17T18:07:49.851Z,241.63
2019-03-17T18:10:18.841Z,236.57
2019-03-17T18:12:49.037Z,240.87
2019-03-17T18:15:29.004Z,230.57
2019-03-17T18:17:59.321Z,209.70
2019-03-17T18:20:27.628Z,206.73
2019-03-17T18:22:56.190Z,203.20
2019-03-17T18:25:24.861Z,200.20
2019-03-17T18:27:53.243Z,203.60
2019-03-17T18:30:25.298Z,189.83
2019-03-17T18:32:53.891Z,212.30
2019-03-17T18:35:22.235Z,183.63
2019-03-17T18:37:51.603Z,183.37
2019-03-17T18:40:23.173Z,209.33
2019-03-17T18:42:51.865Z,200.07
2019-03-17T18:45:29.407Z,193.10
2019-03-17T18:47:58.489Z,184.60
2019-03-17T18:50:27.100Z,178.80
2019-03-17T18:52:55.418Z,175.60
2019-03-17T18:55:24.047Z,202.83
2019-03-17T18:57:52.395Z,199.23
2019-03-17T19:00:22.110Z,204.27
2019-03-17T19:02:50.428Z,189.63
2019-03-17T19:05:20.331Z,189.77
2019-03-17T19:07:49.340Z,180.67
2019-03-17T19:10:21.420Z,208.30
2019-03-17T19:12:49.837Z,224.00
2019-03-17T19:15:19.664Z,223.00
2019-03-17T19:17:47.983Z,216.20
2019-03-17T19:20:17.379Z,221.67
2019-03-17T19:22:45.762Z,205.40
2019-03-17T19:25:16.339Z,204.40
2019-03-17T19:27:44.810Z,201.40
2019-03-17T19:30:16.395Z,195.73
2019-03-17T19:32:45.238Z,192.10
2019-03-17T19:35:14.143Z,193.10
2019-03-17T19:37:42.771Z,197.00
2019-03-17T19:40:17.391Z,186.57
2019-03-17T19:42:58.041Z,179.63
2019-03-17T19:45:16.282Z,175.27
2019-03-17T19:47:44.927Z,173.83
2019-03-17T19:50:21.227Z,179.40
2019-03-17T19:52:49.942Z,181.57
2019-03-17T19:55:18.627Z,190.77
2019-03-17T19:57:47.246Z,185.07
2019-03-17T20:00:22.750Z,195.30
2019-03-17T20:02:51.357Z,204.30
2019-03-17T20:05:20.018Z,199.83
2019-03-17T20:07:48.306Z,212.77
2019-03-17T20:10:33.528Z,233.20
2019-03-17T20:13:11.446Z,221.70
2019-03-17T20:15:32.212Z,215.67
2019-03-17T20:18:00.510Z,208.53
2019-03-17T20:20:29.154Z,205.53
2019-03-17T20:22:58.042Z,200.93
2019-03-17T20:25:26.641Z,198.60
2019-03-17T20:27:55.296Z,200.13
2019-03-17T20:30:23.577Z,187.47
2019-03-17T20:32:52.284Z,189.83
2019-03-17T20:35:21.077Z,203.00
2019-03-17T20:37:49.598Z,226.67
2019-03-17T20:40:18.964Z,243.30
2019-03-17T20:42:47.347Z,228.03
2019-03-17T20:45:16.304Z,210.70
2019-03-17T20:47:44.612Z,222.87
2019-03-17T20:50:17.797Z,218.03
2019-03-17T20:52:46.467Z,241.07
2019-03-17T20:55:16.695Z,244.57
2019-03-17T20:57:45.003Z,246.10
2019-03-17T21:00:15.646Z,300.10
2019-03-17T21:02:44.021Z,272.87
2019-03-17T21:05:12.892Z,249.60
2019-03-17T21:07:41.464Z,234.07
2019-03-17T21:10:14.902Z,226.07
2019-03-17T21:12:43.233Z,222.20
2019-03-17T21:15:15.186Z,223.47
2019-03-17T21:17:43.766Z,215.50
2019-03-17T21:20:14.088Z,207.90
2019-03-17T21:22:42.393Z,206.07
2019-03-17T21:25:11.561Z,201.53
2019-03-17T21:27:39.963Z,183.70
2019-03-17T21:30:17.458Z,193.60
2019-03-17T21:32:46.013Z,190.90
2019-03-17T21:35:14.352Z,185.60
2019-03-17T21:37:43.011Z,190.97
2019-03-17T21:40:13.577Z,205.60
2019-03-17T21:42:42.208Z,204.53
2019-03-17T21:45:12.074Z,197.53
2019-03-17T21:47:40.455Z,197.43
2019-03-17T21:50:13.942Z,191.20
2019-03-17T21:52:42.427Z,186.97
2019-03-17T21:55:11.386Z,177.47
2019-03-17T21:57:39.692Z,174.03
2019-03-17T22:00:20.822Z,171.70
2019-03-17T22:02:49.501Z,172.80
2019-03-17T22:05:18.079Z,162.17
2019-03-17T22:07:51.116Z,162.53
2019-03-17T22:10:21.424Z,175.30
2019-03-17T22:12:50.081Z,169.30
2019-03-17T22:15:22.054Z,181.13
2019-03-17T22:17:50.639Z,152.07
2019-03-17T22:20:18.917Z,167.00
2019-03-17T22:22:47.219Z,197.03
2019-03-17T22:25:16.084Z,190.37
2019-03-17T22:27:44.685Z,204.30
2019-03-17T22:30:23.172Z,202.30
2019-03-17T22:32:51.755Z,190.77
2019-03-17T22:35:22.479Z,184.07
2019-03-17T22:37:50.804Z,190.50
2019-03-17T22:40:19.491Z,208.70
2019-03-17T22:42:47.802Z,202.40
2019-03-17T22:45:16.726Z,216.57
2019-03-17T22:47:45.020Z,206.30
2019-03-17T22:50:17.056Z,202.83
2019-03-17T22:52:45.362Z,194.83
2019-03-17T22:55:13.930Z,183.57
2019-03-17T22:57:42.492Z,191.17
2019-03-17T23:00:35.987Z,182.80
2019-03-17T23:03:04.871Z,182.43
2019-03-17T23:05:33.767Z,178.20
2019-03-17T23:08:03.988Z,164.63
2019-03-17T23:10:33.924Z,165.10
2019-03-17T23:13:02.491Z,175.00
2019-03-17T23:15:30.794Z,165.07
2019-03-17T23:17:59.123Z,153.53
2019-03-17T23:20:27.718Z,152.20
2019-03-17T23:22:56.016Z,177.23
2019-03-17T23:25:24.688Z,183.97
2019-03-17T23:27:53.262Z,179.87
2019-03-17T23:30:22.082Z,215.10
2019-03-17T23:32:50.427Z,201.33
2019-03-17T23:35:19.011Z,193.90
2019-03-17T23:37:47.595Z,203.40
2019-03-17T23:40:16.849Z,196.57
2019-03-17T23:42:45.139Z,195.07
2019-03-17T23:45:13.758Z,194.30
2019-03-17T23:47:42.086Z,183.93
2019-03-17T23:50:13.292Z,180.33
2019-03-17T23:52:42.179Z,180.67
2019-03-17T23:55:11.989Z,179.57
2019-03-17T23:57:40.566Z,163.77
